Dennison, OH

3:59 AM EDT on October 23, 2014 (GMT -0400)
Wheeling-Ohio County | Change Station
CLOSE
Current Station
Airport
Location: Wheeling,
Elevation: 1194 ft
Nearby Weather Stations

Elev 1194 ft 40.17 °N, 80.65 °W | Updated 6 minutes ago

Partly Cloudy
Partly Cloudy
43 °F
Feels Like 40 °F
N
6
Wind Variable Wind from West

Today
High -- | Low -- °F
--% Chance of Precip.
Yesterday
High -- | Low -- °F
Precip. -- in
7:44 AM 6:33 PM
Waning Crescent, 0% visible
Pressure 30.17 in
Visibility 10.0 miles
Clouds Few 4300 ft
Windchill 40 °F
Dew Point 40 °F
Humidity 89%
Rainfall 0.00 in
Snow Depth Not available.
UV 0 out of 12
Pollen .60 out of 12
Air Quality Not available.
Flu Activity Sporadic
METAR KHLG 230753Z AUTO 28005KT 10SM FEW043 06/04 A3014 RMK AO2 SLP214 T00610044

More Conditions Fewer Conditions

Pressure 30.17 in
Visibility 10.0 miles
Clouds Few 4300 ft
Windchill 40 °F
Dew Point 40 °F
Humidity 89%
Rainfall 0.00 in
Snow Depth Not available.
UV 0 out of 12
Pollen .60 out of 12
Air Quality Not available.
Flu Activity Sporadic
METAR KHLG 230753Z AUTO 28005KT 10SM FEW043 06/04 A3014 RMK AO2 SLP214 T00610044

More Conditions Fewer Conditions

10-Day Weather Forecast

Almanac

Astronomy

Oct. 23, 2014 Rise Set
Actual Time 7:44 AM EDT 6:33 PM EDT
Civil Twilight 7:17 AM EDT 7:01 PM EDT
Nautical Twilight 6:45 AM EDT 7:33 PM EDT
Astronomical Twilight 6:13 AM EDT 8:04 PM EDT
Moon 7:23 AM EDT 6:34 PM EDT
Length of Visible Light 11h 44m
Length of Day
10h 48m
Tomorrow will be 2m 30s shorter.
Waning Crescent, 0% of the Moon is Illuminated
Today
Waning Crescent
Oct 23
New
Oct 30
First Quarter
Nov 6
Full
Nov 14
Last Quarter

Today's Extremes

State Highs State Lows

Community

WunderPhotos

Upload Photos

1,764,194 photos uploaded!

Nearby

Snow Depth

Station Depth Elevation
No new snow has been reported.

Earthquake Activity

City Distance Mag. Time & Date
No recent earthquake activity has been reported nearby.
Minimum magnitude displayed is 2.5.

Coastal Water Temperatures

Place Temperature
No Stations Reporting

Nearby Weather Stations